Terminal Aerodrome Forecast
Issued by NWS Sioux Falls, SD

Home | Current Version | Previous Version | Text Only | Print | Product List | Glossary On
Versions: 1 2 3 4 5 6 7 8 9 10 11 12 13 14 15 16 17
000
FTUS43 KFSD 030520
TAFHON
TAF
KHON 030520Z 0306/0406 18004KT P6SM SCT025
      TEMPO 0311/0313 4SM BR
     FM031300 22004KT P6SM SCT250
     FM031900 31006KT P6SM FEW050
     FM040100 VRB03KT P6SM SCT250=

USA.gov is the U.S. government's official web portal to all federal, state and local government web resources and services.